Time,TemperatureF,DewpointF,PressureIn,WindDirection,WindDirectionDegrees,WindSpeedMPH,WindSpeedGustMPH,Humidity,HourlyPrecipIn,Conditions,Clouds,dailyrainin,SolarRadiationWatts/m^2,SoftwareType,DateUTC
2013-04-29 00:02:00,45.0,42.0,-100.00,NW,324,6.0,15.0,89,0.01,,,0.04,0.000000,,2013-04-29 06:02:00,
2013-04-29 00:11:00,45.0,42.0,-100.00,NW,324,6.0,15.0,89,0.01,,,0.04,0.000000,,2013-04-29 06:11:00,
2013-04-29 00:42:00,45.0,42.0,-100.00,WSW,241,3.0,9.0,89,0.00,,,0.04,0.000000,,2013-04-29 06:42:00,
2013-04-29 00:52:00,45.0,42.0,-100.00,WSW,241,3.0,9.0,89,0.00,,,0.04,0.000000,,2013-04-29 06:52:00,
2013-04-29 01:01:00,45.0,42.0,-100.00,WSW,241,3.0,9.0,89,0.00,,,0.04,0.000000,,2013-04-29 07:01:00,
2013-04-29 01:11:00,45.0,42.0,-100.00,WSW,241,3.0,9.0,89,0.00,,,0.04,0.000000,,2013-04-29 07:11:00,
2013-04-29 01:32:00,48.0,40.0,-100.00,West,276,6.0,12.0,74,0.00,,,0.04,0.000000,,2013-04-29 07:32:00,
2013-04-29 01:42:00,48.0,40.0,-100.00,West,276,6.0,12.0,74,0.00,,,0.04,0.000000,,2013-04-29 07:42:00,
2013-04-29 01:52:00,48.0,40.0,-100.00,West,276,6.0,12.0,74,0.00,,,0.04,0.000000,,2013-04-29 07:52:00,
2013-04-29 02:03:00,48.0,40.0,-100.00,West,276,6.0,12.0,74,0.00,,,0.04,0.000000,,2013-04-29 08:03:00,
2013-04-29 02:11:00,48.0,40.0,-100.00,West,276,6.0,12.0,74,0.00,,,0.04,0.000000,,2013-04-29 08:11:00,
2013-04-29 02:42:00,44.0,40.0,-100.00,SSW,196,8.0,14.0,86,0.00,,,0.04,0.000000,,2013-04-29 08:42:00,
2013-04-29 02:52:00,44.0,40.0,-100.00,SSW,196,8.0,14.0,86,0.00,,,0.04,0.000000,,2013-04-29 08:52:00,
2013-04-29 03:01:00,44.0,40.0,-100.00,SSW,196,8.0,14.0,86,0.00,,,0.04,0.000000,,2013-04-29 09:01:00,
2013-04-29 03:12:00,44.0,40.0,-100.00,SSW,196,8.0,14.0,86,0.00,,,0.04,0.000000,,2013-04-29 09:12:00,
2013-04-29 03:42:00,44.0,39.0,-100.00,South,191,5.0,12.0,84,0.00,,,0.04,0.000000,,2013-04-29 09:42:00,
2013-04-29 03:53:00,44.0,39.0,-100.00,South,191,5.0,12.0,84,0.00,,,0.04,0.000000,,2013-04-29 09:53:00,
2013-04-29 04:02:00,44.0,39.0,-100.00,South,191,5.0,12.0,84,0.00,,,0.04,0.000000,,2013-04-29 10:02:00,
2013-04-29 04:12:00,44.0,39.0,-100.00,South,191,5.0,12.0,84,0.00,,,0.04,0.000000,,2013-04-29 10:12:00,
2013-04-29 04:32:00,44.0,39.0,-100.00,SW,225,6.0,12.0,83,0.00,,,0.04,0.000000,,2013-04-29 10:32:00,
2013-04-29 04:42:00,44.0,39.0,-100.00,SW,225,6.0,12.0,83,0.00,,,0.04,0.000000,,2013-04-29 10:42:00,
2013-04-29 04:52:00,44.0,39.0,-100.00,SW,225,6.0,12.0,83,0.00,,,0.04,0.000000,,2013-04-29 10:52:00,
2013-04-29 05:03:00,44.0,39.0,-100.00,SW,225,6.0,12.0,83,0.00,,,0.04,0.000000,,2013-04-29 11:03:00,
2013-04-29 05:12:00,44.0,39.0,-100.00,SW,225,6.0,12.0,83,0.00,,,0.04,0.000000,,2013-04-29 11:12:00,
2013-04-29 05:42:00,45.0,38.0,-100.00,SW,221,7.0,12.0,77,0.00,,,0.04,0.000000,,2013-04-29 11:42:00,
2013-04-29 05:52:00,45.0,38.0,-100.00,SW,221,7.0,12.0,77,0.00,,,0.04,0.000000,,2013-04-29 11:52:00,
2013-04-29 06:01:00,45.0,38.0,-100.00,SW,221,7.0,12.0,77,0.00,,,0.04,0.000000,,2013-04-29 12:01:00,
2013-04-29 06:12:00,45.0,38.0,-100.00,SW,221,7.0,12.0,77,0.00,,,0.04,0.000000,,2013-04-29 12:12:00,
2013-04-29 07:32:00,48.0,38.0,-100.00,SSW,193,7.0,10.0,67,-99.99,,,0.04,79.000000,,2013-04-29 13:32:00,
2013-04-29 07:42:00,48.0,38.0,-100.00,SSW,193,7.0,10.0,67,-99.99,,,0.04,79.000000,,2013-04-29 13:42:00,
2013-04-29 07:52:00,48.0,38.0,-100.00,SSW,193,7.0,10.0,67,-99.99,,,0.04,79.000000,,2013-04-29 13:52:00,
2013-04-29 08:02:00,48.0,38.0,-100.00,SSW,193,7.0,10.0,67,-99.99,,,0.04,79.000000,,2013-04-29 14:02:00,
2013-04-29 08:11:00,48.0,38.0,-100.00,SSW,193,7.0,10.0,67,-99.99,,,0.04,79.000000,,2013-04-29 14:11:00,
2013-04-29 08:42:00,51.0,38.0,-100.00,South,177,7.0,13.0,61,0.00,,,0.04,300.000000,,2013-04-29 14:42:00,
2013-04-29 08:52:00,51.0,38.0,-100.00,South,177,7.0,13.0,61,0.00,,,0.04,300.000000,,2013-04-29 14:52:00,
2013-04-29 09:01:00,51.0,38.0,-100.00,South,177,7.0,13.0,61,0.00,,,0.04,300.000000,,2013-04-29 15:01:00,
2013-04-29 09:12:00,51.0,38.0,-100.00,South,177,7.0,13.0,61,0.00,,,0.04,300.000000,,2013-04-29 15:12:00,
2013-04-29 09:33:00,53.0,39.0,-100.00,South,171,9.0,13.0,59,0.00,,,0.04,397.000000,,2013-04-29 15:33:00,
2013-04-29 09:43:00,53.0,39.0,-100.00,South,171,9.0,13.0,59,0.00,,,0.04,397.000000,,2013-04-29 15:43:00,
2013-04-29 09:53:00,53.0,39.0,-100.00,South,171,9.0,13.0,59,0.00,,,0.04,397.000000,,2013-04-29 15:53:00,
2013-04-29 10:03:00,53.0,39.0,-100.00,South,171,9.0,13.0,59,0.00,,,0.04,397.000000,,2013-04-29 16:03:00,
2013-04-29 10:12:00,53.0,39.0,-100.00,South,171,9.0,13.0,59,0.00,,,0.04,397.000000,,2013-04-29 16:12:00,
2013-04-29 10:33:00,57.0,39.0,-100.00,WSW,240,6.0,15.0,51,0.00,,,0.04,570.000000,,2013-04-29 16:33:00,
2013-04-29 10:42:00,57.0,39.0,-100.00,WSW,240,6.0,15.0,51,0.00,,,0.04,570.000000,,2013-04-29 16:42:00,
2013-04-29 10:52:00,57.0,39.0,-100.00,WSW,240,6.0,15.0,51,0.00,,,0.04,570.000000,,2013-04-29 16:52:00,
2013-04-29 11:02:00,57.0,39.0,-100.00,WSW,240,6.0,15.0,51,0.00,,,0.04,570.000000,,2013-04-29 17:02:00,
2013-04-29 11:12:00,57.0,39.0,-100.00,WSW,240,6.0,15.0,51,0.00,,,0.04,570.000000,,2013-04-29 17:12:00,
2013-04-29 11:13:00,59.0,36.0,-100.00,SW,225,8.0,16.0,42,0.00,,,0.04,578.000000,,2013-04-29 17:13:00,
2013-04-29 11:32:00,59.0,36.0,-100.00,SW,225,8.0,16.0,42,0.00,,,0.04,578.000000,,2013-04-29 17:32:00,
2013-04-29 11:42:00,59.0,36.0,-100.00,SW,225,8.0,16.0,42,0.00,,,0.04,578.000000,,2013-04-29 17:42:00,
2013-04-29 11:52:00,59.0,36.0,-100.00,SW,225,8.0,16.0,42,0.00,,,0.04,578.000000,,2013-04-29 17:52:00,
2013-04-29 12:01:00,59.0,36.0,-100.00,SW,225,8.0,16.0,42,0.00,,,0.04,578.000000,,2013-04-29 18:01:00,
2013-04-29 12:42:00,61.0,36.0,-100.00,SW,233,6.0,15.0,40,0.00,,,0.04,651.000000,,2013-04-29 18:42:00,
2013-04-29 12:52:00,61.0,36.0,-100.00,SW,233,6.0,15.0,40,0.00,,,0.04,651.000000,,2013-04-29 18:52:00,
2013-04-29 13:01:00,61.0,36.0,-100.00,SW,233,6.0,15.0,40,0.00,,,0.04,651.000000,,2013-04-29 19:01:00,
2013-04-29 13:11:00,61.0,36.0,-100.00,SW,233,6.0,15.0,40,0.00,,,0.04,651.000000,,2013-04-29 19:11:00,
2013-04-29 14:42:00,69.0,30.0,-100.00,South,187,11.0,21.0,23,-99.99,,,0.04,970.000000,,2013-04-29 20:42:00,
2013-04-29 14:52:00,69.0,30.0,-100.00,South,187,11.0,21.0,23,-99.99,,,0.04,970.000000,,2013-04-29 20:52:00,
2013-04-29 15:01:00,69.0,30.0,-100.00,South,187,11.0,21.0,23,-99.99,,,0.04,970.000000,,2013-04-29 21:01:00,
2013-04-29 15:11:00,69.0,30.0,-100.00,South,187,11.0,21.0,23,-99.99,,,0.04,970.000000,,2013-04-29 21:11:00,
2013-04-29 16:32:00,72.0,25.0,-100.00,South,181,10.0,23.0,17,-99.99,,,0.04,463.000000,,2013-04-29 22:32:00,
2013-04-29 16:42:00,72.0,25.0,-100.00,South,181,10.0,23.0,17,-99.99,,,0.04,463.000000,,2013-04-29 22:42:00,
2013-04-29 16:53:00,72.0,25.0,-100.00,South,181,10.0,23.0,17,-99.99,,,0.04,463.000000,,2013-04-29 22:53:00,
2013-04-29 17:02:00,72.0,25.0,-100.00,South,181,10.0,23.0,17,-99.99,,,0.04,463.000000,,2013-04-29 23:02:00,
2013-04-29 17:11:00,72.0,25.0,-100.00,South,181,10.0,23.0,17,-99.99,,,0.04,463.000000,,2013-04-29 23:11:00,
2013-04-29 17:42:00,71.0,23.0,-100.00,SSW,192,9.0,20.0,16,0.00,,,0.04,310.000000,,2013-04-29 23:42:00,
2013-04-29 17:52:00,71.0,23.0,-100.00,SSW,192,9.0,20.0,16,0.00,,,0.04,310.000000,,2013-04-29 23:52:00,
2013-04-29 18:01:00,71.0,23.0,-100.00,SSW,192,9.0,20.0,16,0.00,,,0.04,310.000000,,2013-04-30 00:01:00,
2013-04-29 18:11:00,71.0,23.0,-100.00,SSW,192,9.0,20.0,16,0.00,,,0.04,310.000000,,2013-04-30 00:11:00,